航空気象通報

ウインドサーファーのための航空気象通報による風予報です。

12/8-12/10の航空気象通報

2017年12月08日 23時21分37秒 | TAF
羽田空港
TAF RJTT 081105Z 0812/0918 35014KT 9999 FEW030
TEMPO 0812/0813 35026G38KT 4000 -SHRA BR
TEMPO 0813/0815 35022G34KT
BECMG 0903/0906 14010KT
BECMG 0912/0915 32006KT
日本時間8日21時-9日12時:350度から14ノットの風
但し、8日21-22時の間:時々350度から26ノット、突風38ノット
但し、8日22-24時の間:時々350度から22ノット、突風34ノット
12-15時:風が変化
15-21時:140度から10ノットの風
21-24時:風が変化
10日00-03時:320度から6ノットの風

但し、8日21-22時の間:時々

静岡空港
TAF RJNS 081106Z 0812/0918 28010KT 9999 FEW030
日本時間8日21時-10日03時:280度から10ノットの風


福岡空港
TAF RJFF 081105Z 0812/0918 32012KT 9999 FEW035 BKN045
BECMG 0909/0912 15015KT
日本時間8日21時-9日18時:320度から12ノットの風
18-21時:風が変化
21時-10日03時:150度から15ノットの風


那覇空港
TAF ROAH 081105Z 0812/0918 02018KT 9999 FEW030 BKN040
BECMG 0900/0903 05006KT
日本時間8日21時-9日09時:020度から18ノットの風
09-12時:風が変化
12時-10日03時:050度から6ノットの風


石垣空港
TAF ROIG 081107Z 0812/0918 03018KT 9999 FEW030 BKN040
日本時間8日21時-10日03時:030度から18ノットの風


マウイのカフルイ空港
PHOG 081142Z 0812/0912 13005KT P6SM FEW030 FEW050
FM082100 02008KT P6SM FEW030 SCT050
FM090400 03005KT P6SM FEW030 FEW050 AMD LTD TO VIS AND WIND TIL 081600
ハワイ時間8日02-11時:130度から5ノットの風
11-18時:020度から8ノットの風
18時-9日02時:030度から5ノットの風


サイパン空港
TAF PGSN 081120Z 0812/0912 10009KT P6SM VCSH FEW018 SCT050 SCT140
TEMPO 0812/0816 5SM SHRA SCT014 BKN025
FM090100 09012KT P6SM VCSH FEW018 SCT050 SCT140
マリアナ時間8日22時-9日11時:100度から9ノットの風
11-22時:090度から12ノットの風

但し、8日22時-9日02時の間:時々
ジャンル:
お天気
コメント   この記事についてブログを書く
« 12/6-12/8の航空気象通報 | トップ | 12/9-12/11の航空気象通報 »
最近の画像もっと見る

コメントを投稿

ブログ作成者から承認されるまでコメントは反映されません。

TAF」カテゴリの最新記事